Search for airport 
image banner adimage banner adimage banner ad
image banner ad

CN27 - Hughes/Canoga Park

Located in Canoga Park, United States

ICAO - CN27, IATA -

Data provided by Airmate  

General information

Coordinates: N34°13'17" W118°37'38"
Elevation is 845 feet MSL.
Magnetic variation is 14° East
View others Airports in California

Operational data

Special qualification required
Current time UTC:
Current local time:
Weather at : KVNY - Van Nuys ( 13 km )
METAR: KVNY 231451Z 00000KT 10SM CLR 22/11 A2992 RMK AO2 SLP123 T02170111 53002
TAF: KVNY 231144Z 2312/2412 VRB03KT P6SM SKC FM231900 14010KT P6SM SKC FM240400 VRB03KT P6SM SKC
View NOTAMs / SUP AIP / TFR affecting this airport [VIEW]
Communications frequencies: [VIEW]

Runways:

Airport contact information

Address: Canoga Park United States

Satellite view of CN27